sensor_id;sensor_type;location;lat;lon;timestamp;P1;durP1;ratioP1;P2;durP2;ratioP2
19965;SDS011;10144;50.874;4.762;2024-03-02T00:05:24;1.23;;;0.50;;
19965;SDS011;10144;50.874;4.762;2024-03-02T00:07:59;2.27;;;0.40;;
19965;SDS011;10144;50.874;4.762;2024-03-02T00:10:31;1.30;;;0.50;;
19965;SDS011;10144;50.874;4.762;2024-03-02T00:15:52;0.77;;;0.40;;
19965;SDS011;10144;50.874;4.762;2024-03-02T00:18:37;1.63;;;0.57;;
19965;SDS011;10144;50.874;4.762;2024-03-02T00:21:24;1.73;;;0.70;;
19965;SDS011;10144;50.874;4.762;2024-03-02T00:23:54;0.97;;;0.80;;
19965;SDS011;10144;50.874;4.762;2024-03-02T00:29:17;1.50;;;0.70;;
19965;SDS011;10144;50.874;4.762;2024-03-02T00:31:45;1.20;;;0.60;;
19965;SDS011;10144;50.874;4.762;2024-03-02T00:34:14;1.47;;;0.50;;
19965;SDS011;10144;50.874;4.762;2024-03-02T00:37:00;3.00;;;0.80;;
19965;SDS011;10144;50.874;4.762;2024-03-02T00:39:29;4.10;;;0.97;;
19965;SDS011;10144;50.874;4.762;2024-03-02T00:42:01;1.23;;;0.60;;
19965;SDS011;10144;50.874;4.762;2024-03-02T00:44:26;2.10;;;0.70;;
19965;SDS011;10144;50.874;4.762;2024-03-02T00:47:06;2.63;;;0.70;;
19965;SDS011;10144;50.874;4.762;2024-03-02T00:54:30;2.60;;;0.60;;
19965;SDS011;10144;50.874;4.762;2024-03-02T00:59:25;3.37;;;0.60;;
19965;SDS011;10144;50.874;4.762;2024-03-02T01:04:29;1.20;;;0.60;;
19965;SDS011;10144;50.874;4.762;2024-03-02T01:09:25;1.80;;;0.50;;
19965;SDS011;10144;50.874;4.762;2024-03-02T01:12:00;1.57;;;0.50;;
19965;SDS011;10144;50.874;4.762;2024-03-02T01:14:27;2.13;;;0.67;;
19965;SDS011;10144;50.874;4.762;2024-03-02T01:16:56;1.37;;;0.47;;
19965;SDS011;10144;50.874;4.762;2024-03-02T01:19:23;1.60;;;0.40;;
19965;SDS011;10144;50.874;4.762;2024-03-02T01:21:55;0.20;;;0.20;;
19965;SDS011;10144;50.874;4.762;2024-03-02T01:26:52;1.20;;;0.40;;
19965;SDS011;10144;50.874;4.762;2024-03-02T01:29:18;1.03;;;0.70;;
19965;SDS011;10144;50.874;4.762;2024-03-02T01:31:47;1.70;;;0.60;;
19965;SDS011;10144;50.874;4.762;2024-03-02T01:36:45;1.33;;;0.60;;
19965;SDS011;10144;50.874;4.762;2024-03-02T01:42:13;1.03;;;0.50;;
19965;SDS011;10144;50.874;4.762;2024-03-02T01:44:40;1.43;;;0.70;;
19965;SDS011;10144;50.874;4.762;2024-03-02T01:47:09;1.93;;;0.90;;
19965;SDS011;10144;50.874;4.762;2024-03-02T01:49:37;1.83;;;0.70;;
19965;SDS011;10144;50.874;4.762;2024-03-02T01:52:06;4.67;;;0.93;;
19965;SDS011;10144;50.874;4.762;2024-03-02T01:54:38;1.47;;;0.53;;
19965;SDS011;10144;50.874;4.762;2024-03-02T01:57:04;0.87;;;0.40;;
19965;SDS011;10144;50.874;4.762;2024-03-02T02:02:10;0.50;;;0.37;;
19965;SDS011;10144;50.874;4.762;2024-03-02T02:04:39;0.73;;;0.20;;
19965;SDS011;10144;50.874;4.762;2024-03-02T02:07:06;0.77;;;0.33;;
19965;SDS011;10144;50.874;4.762;2024-03-02T02:09:32;3.40;;;0.50;;
19965;SDS011;10144;50.874;4.762;2024-03-02T02:12:01;0.80;;;0.40;;
19965;SDS011;10144;50.874;4.762;2024-03-02T02:14:29;1.57;;;0.33;;
19965;SDS011;10144;50.874;4.762;2024-03-02T02:19:25;3.00;;;0.40;;
19965;SDS011;10144;50.874;4.762;2024-03-02T02:24:23;2.13;;;0.60;;
19965;SDS011;10144;50.874;4.762;2024-03-02T02:26:52;2.67;;;0.40;;
19965;SDS011;10144;50.874;4.762;2024-03-02T02:29:21;1.10;;;0.40;;
19965;SDS011;10144;50.874;4.762;2024-03-02T02:31:47;2.03;;;0.50;;
19965;SDS011;10144;50.874;4.762;2024-03-02T02:36:44;1.37;;;0.40;;
19965;SDS011;10144;50.874;4.762;2024-03-02T02:39:11;2.43;;;0.40;;
19965;SDS011;10144;50.874;4.762;2024-03-02T02:44:17;0.60;;;0.40;;
19965;SDS011;10144;50.874;4.762;2024-03-02T02:49:14;1.17;;;0.37;;
19965;SDS011;10144;50.874;4.762;2024-03-02T02:54:11;1.33;;;0.50;;
19965;SDS011;10144;50.874;4.762;2024-03-02T02:59:32;2.00;;;0.40;;
19965;SDS011;10144;50.874;4.762;2024-03-02T03:02:00;2.87;;;0.60;;
19965;SDS011;10144;50.874;4.762;2024-03-02T03:04:26;1.67;;;0.50;;
19965;SDS011;10144;50.874;4.762;2024-03-02T03:11:53;1.40;;;0.50;;
19965;SDS011;10144;50.874;4.762;2024-03-02T03:14:18;1.23;;;0.50;;
19965;SDS011;10144;50.874;4.762;2024-03-02T03:16:45;1.13;;;0.53;;
19965;SDS011;10144;50.874;4.762;2024-03-02T03:21:44;3.20;;;0.50;;
19965;SDS011;10144;50.874;4.762;2024-03-02T03:24:15;2.03;;;0.50;;
19965;SDS011;10144;50.874;4.762;2024-03-02T03:29:14;3.57;;;1.30;;
19965;SDS011;10144;50.874;4.762;2024-03-02T03:31:39;4.00;;;0.60;;
19965;SDS011;10144;50.874;4.762;2024-03-02T03:34:05;1.80;;;0.50;;
19965;SDS011;10144;50.874;4.762;2024-03-02T03:36:34;2.63;;;1.00;;
19965;SDS011;10144;50.874;4.762;2024-03-02T03:39:06;3.37;;;0.60;;
19965;SDS011;10144;50.874;4.762;2024-03-02T03:41:34;2.80;;;0.77;;
19965;SDS011;10144;50.874;4.762;2024-03-02T03:44:03;5.23;;;0.70;;
19965;SDS011;10144;50.874;4.762;2024-03-02T03:49:01;2.63;;;0.63;;
19965;SDS011;10144;50.874;4.762;2024-03-02T03:51:27;2.10;;;0.60;;
19965;SDS011;10144;50.874;4.762;2024-03-02T03:53:52;1.83;;;0.60;;
19965;SDS011;10144;50.874;4.762;2024-03-02T03:56:21;2.93;;;0.80;;
19965;SDS011;10144;50.874;4.762;2024-03-02T04:04:04;2.00;;;0.60;;
19965;SDS011;10144;50.874;4.762;2024-03-02T04:06:33;1.67;;;0.60;;
19965;SDS011;10144;50.874;4.762;2024-03-02T04:11:32;2.97;;;0.70;;
19965;SDS011;10144;50.874;4.762;2024-03-02T04:14:01;6.87;;;0.80;;
19965;SDS011;10144;50.874;4.762;2024-03-02T04:16:27;3.80;;;0.80;;
19965;SDS011;10144;50.874;4.762;2024-03-02T04:21:41;3.73;;;0.70;;
19965;SDS011;10144;50.874;4.762;2024-03-02T04:24:09;1.67;;;0.70;;
19965;SDS011;10144;50.874;4.762;2024-03-02T04:26:38;2.80;;;0.80;;
19965;SDS011;10144;50.874;4.762;2024-03-02T04:29:13;3.60;;;0.70;;
19965;SDS011;10144;50.874;4.762;2024-03-02T04:34:26;2.67;;;0.60;;
19965;SDS011;10144;50.874;4.762;2024-03-02T04:36:52;2.07;;;0.80;;
19965;SDS011;10144;50.874;4.762;2024-03-02T04:39:18;4.57;;;0.80;;
19965;SDS011;10144;50.874;4.762;2024-03-02T04:44:35;2.30;;;0.63;;
19965;SDS011;10144;50.874;4.762;2024-03-02T04:47:00;10.27;;;0.80;;
19965;SDS011;10144;50.874;4.762;2024-03-02T04:49:26;2.97;;;0.67;;
19965;SDS011;10144;50.874;4.762;2024-03-02T04:51:55;3.03;;;0.67;;
19965;SDS011;10144;50.874;4.762;2024-03-02T04:54:23;2.10;;;0.77;;
19965;SDS011;10144;50.874;4.762;2024-03-02T04:56:51;4.20;;;0.60;;
19965;SDS011;10144;50.874;4.762;2024-03-02T04:59:17;6.10;;;0.77;;
19965;SDS011;10144;50.874;4.762;2024-03-02T05:01:43;5.97;;;0.87;;
19965;SDS011;10144;50.874;4.762;2024-03-02T05:07:27;1.77;;;0.60;;
19965;SDS011;10144;50.874;4.762;2024-03-02T05:09:54;5.83;;;1.10;;
19965;SDS011;10144;50.874;4.762;2024-03-02T05:12:23;3.43;;;0.70;;
19965;SDS011;10144;50.874;4.762;2024-03-02T05:18:02;3.20;;;0.80;;
19965;SDS011;10144;50.874;4.762;2024-03-02T05:20:32;5.27;;;1.00;;
19965;SDS011;10144;50.874;4.762;2024-03-02T05:22:58;2.93;;;0.73;;
19965;SDS011;10144;50.874;4.762;2024-03-02T05:25:26;4.27;;;0.87;;
19965;SDS011;10144;50.874;4.762;2024-03-02T05:30:24;2.97;;;0.97;;
19965;SDS011;10144;50.874;4.762;2024-03-02T05:32:51;3.47;;;0.90;;
19965;SDS011;10144;50.874;4.762;2024-03-02T05:35:20;3.50;;;0.70;;
19965;SDS011;10144;50.874;4.762;2024-03-02T05:37:52;3.63;;;1.00;;
19965;SDS011;10144;50.874;4.762;2024-03-02T05:40:26;1.83;;;0.70;;
19965;SDS011;10144;50.874;4.762;2024-03-02T05:42:55;4.33;;;0.80;;
19965;SDS011;10144;50.874;4.762;2024-03-02T05:45:21;3.90;;;0.90;;
19965;SDS011;10144;50.874;4.762;2024-03-02T05:47:47;3.43;;;1.37;;
19965;SDS011;10144;50.874;4.762;2024-03-02T05:52:50;7.67;;;1.10;;
19965;SDS011;10144;50.874;4.762;2024-03-02T05:55:19;4.73;;;0.90;;
19965;SDS011;10144;50.874;4.762;2024-03-02T05:57:46;4.60;;;1.00;;
19965;SDS011;10144;50.874;4.762;2024-03-02T06:00:30;5.93;;;0.97;;
19965;SDS011;10144;50.874;4.762;2024-03-02T06:02:59;4.20;;;0.87;;
19965;SDS011;10144;50.874;4.762;2024-03-02T06:05:28;5.07;;;1.13;;
19965;SDS011;10144;50.874;4.762;2024-03-02T06:07:57;9.20;;;1.00;;
19965;SDS011;10144;50.874;4.762;2024-03-02T06:10:22;5.23;;;1.00;;
19965;SDS011;10144;50.874;4.762;2024-03-02T06:12:49;5.83;;;0.80;;
19965;SDS011;10144;50.874;4.762;2024-03-02T06:15:16;3.80;;;0.90;;
19965;SDS011;10144;50.874;4.762;2024-03-02T06:17:45;5.57;;;0.90;;
19965;SDS011;10144;50.874;4.762;2024-03-02T06:20:14;4.20;;;0.90;;
19965;SDS011;10144;50.874;4.762;2024-03-02T06:22:40;2.77;;;1.20;;
19965;SDS011;10144;50.874;4.762;2024-03-02T06:25:06;7.87;;;1.23;;
19965;SDS011;10144;50.874;4.762;2024-03-02T06:27:34;5.00;;;1.10;;
19965;SDS011;10144;50.874;4.762;2024-03-02T06:30:00;6.00;;;1.00;;
19965;SDS011;10144;50.874;4.762;2024-03-02T06:32:26;8.70;;;1.00;;
19965;SDS011;10144;50.874;4.762;2024-03-02T06:34:55;3.67;;;0.80;;
19965;SDS011;10144;50.874;4.762;2024-03-02T06:39:52;6.53;;;0.90;;
19965;SDS011;10144;50.874;4.762;2024-03-02T06:42:20;4.00;;;1.10;;
19965;SDS011;10144;50.874;4.762;2024-03-02T06:44:46;3.97;;;0.73;;
19965;SDS011;10144;50.874;4.762;2024-03-02T06:47:14;3.33;;;0.83;;
19965;SDS011;10144;50.874;4.762;2024-03-02T06:52:13;3.47;;;0.70;;
19965;SDS011;10144;50.874;4.762;2024-03-02T06:54:42;5.97;;;0.93;;
19965;SDS011;10144;50.874;4.762;2024-03-02T06:57:08;7.20;;;1.23;;
19965;SDS011;10144;50.874;4.762;2024-03-02T06:59:33;4.83;;;0.73;;
19965;SDS011;10144;50.874;4.762;2024-03-02T07:02:05;5.50;;;0.90;;
19965;SDS011;10144;50.874;4.762;2024-03-02T07:04:31;2.00;;;0.70;;
19965;SDS011;10144;50.874;4.762;2024-03-02T07:06:58;4.47;;;0.90;;
19965;SDS011;10144;50.874;4.762;2024-03-02T07:09:25;1.43;;;0.53;;
19965;SDS011;10144;50.874;4.762;2024-03-02T07:11:54;2.30;;;0.70;;
19965;SDS011;10144;50.874;4.762;2024-03-02T07:17:11;5.00;;;0.70;;
19965;SDS011;10144;50.874;4.762;2024-03-02T07:22:07;3.60;;;0.90;;
19965;SDS011;10144;50.874;4.762;2024-03-02T07:24:42;7.03;;;0.90;;
19965;SDS011;10144;50.874;4.762;2024-03-02T07:27:08;3.30;;;0.90;;
19965;SDS011;10144;50.874;4.762;2024-03-02T07:29:36;3.93;;;0.80;;
19965;SDS011;10144;50.874;4.762;2024-03-02T07:34:34;4.22;;;0.90;;
19965;SDS011;10144;50.874;4.762;2024-03-02T07:37:00;3.30;;;0.77;;
19965;SDS011;10144;50.874;4.762;2024-03-02T07:39:26;3.37;;;0.97;;
19965;SDS011;10144;50.874;4.762;2024-03-02T07:41:55;6.53;;;0.73;;
19965;SDS011;10144;50.874;4.762;2024-03-02T07:44:22;1.60;;;0.73;;
19965;SDS011;10144;50.874;4.762;2024-03-02T07:46:48;4.10;;;1.00;;
19965;SDS011;10144;50.874;4.762;2024-03-02T07:49:23;3.45;;;0.98;;
19965;SDS011;10144;50.874;4.762;2024-03-02T07:54:20;4.15;;;1.10;;
19965;SDS011;10144;50.874;4.762;2024-03-02T07:56:47;3.88;;;0.80;;
19965;SDS011;10144;50.874;4.762;2024-03-02T07:59:16;3.78;;;0.93;;
19965;SDS011;10144;50.874;4.762;2024-03-02T08:01:42;3.05;;;0.80;;
19965;SDS011;10144;50.874;4.762;2024-03-02T08:06:39;4.22;;;1.08;;
19965;SDS011;10144;50.874;4.762;2024-03-02T08:09:08;6.68;;;1.02;;
19965;SDS011;10144;50.874;4.762;2024-03-02T08:11:38;4.57;;;1.10;;
19965;SDS011;10144;50.874;4.762;2024-03-02T08:14:05;4.00;;;1.08;;
19965;SDS011;10144;50.874;4.762;2024-03-02T08:19:03;5.40;;;1.08;;
19965;SDS011;10144;50.874;4.762;2024-03-02T08:21:30;4.65;;;1.00;;
19965;SDS011;10144;50.874;4.762;2024-03-02T08:23:58;3.03;;;1.10;;
19965;SDS011;10144;50.874;4.762;2024-03-02T08:26:27;4.78;;;1.20;;
19965;SDS011;10144;50.874;4.762;2024-03-02T08:28:58;4.07;;;1.02;;
19965;SDS011;10144;50.874;4.762;2024-03-02T08:31:24;3.38;;;1.10;;
19965;SDS011;10144;50.874;4.762;2024-03-02T08:33:53;3.00;;;1.00;;
19965;SDS011;10144;50.874;4.762;2024-03-02T08:36:22;2.88;;;0.90;;
19965;SDS011;10144;50.874;4.762;2024-03-02T08:38:51;7.18;;;1.50;;
19965;SDS011;10144;50.874;4.762;2024-03-02T08:46:18;3.38;;;0.88;;
19965;SDS011;10144;50.874;4.762;2024-03-02T08:48:43;5.53;;;0.98;;
19965;SDS011;10144;50.874;4.762;2024-03-02T08:51:12;4.20;;;1.00;;
19965;SDS011;10144;50.874;4.762;2024-03-02T08:53:38;3.83;;;0.90;;
19965;SDS011;10144;50.874;4.762;2024-03-02T09:01:04;4.53;;;0.88;;
19965;SDS011;10144;50.874;4.762;2024-03-02T09:03:37;4.75;;;1.10;;
19965;SDS011;10144;50.874;4.762;2024-03-02T09:06:09;5.30;;;1.63;;
19965;SDS011;10144;50.874;4.762;2024-03-02T09:08:38;4.30;;;1.02;;
19965;SDS011;10144;50.874;4.762;2024-03-02T09:11:04;2.83;;;0.90;;
19965;SDS011;10144;50.874;4.762;2024-03-02T09:13:34;2.70;;;0.70;;
19965;SDS011;10144;50.874;4.762;2024-03-02T09:16:00;1.90;;;0.70;;
19965;SDS011;10144;50.874;4.762;2024-03-02T09:18:29;3.25;;;0.80;;
19965;SDS011;10144;50.874;4.762;2024-03-02T09:21:00;5.00;;;1.15;;
19965;SDS011;10144;50.874;4.762;2024-03-02T09:23:26;3.70;;;0.80;;
19965;SDS011;10144;50.874;4.762;2024-03-02T09:25:55;3.42;;;0.93;;
19965;SDS011;10144;50.874;4.762;2024-03-02T09:28:23;5.90;;;0.82;;
19965;SDS011;10144;50.874;4.762;2024-03-02T09:30:55;3.92;;;0.68;;
19965;SDS011;10144;50.874;4.762;2024-03-02T09:33:24;6.35;;;1.33;;
19965;SDS011;10144;50.874;4.762;2024-03-02T09:35:53;6.38;;;1.17;;
19965;SDS011;10144;50.874;4.762;2024-03-02T09:38:18;3.47;;;1.08;;
19965;SDS011;10144;50.874;4.762;2024-03-02T09:40:46;3.30;;;0.93;;
19965;SDS011;10144;50.874;4.762;2024-03-02T09:43:12;6.78;;;0.93;;
19965;SDS011;10144;50.874;4.762;2024-03-02T09:45:39;6.43;;;0.90;;
19965;SDS011;10144;50.874;4.762;2024-03-02T09:48:05;4.43;;;0.88;;
19965;SDS011;10144;50.874;4.762;2024-03-02T09:50:34;12.98;;;1.00;;
19965;SDS011;10144;50.874;4.762;2024-03-02T09:52:59;4.83;;;0.93;;
19965;SDS011;10144;50.874;4.762;2024-03-02T09:55:25;4.80;;;1.00;;
19965;SDS011;10144;50.874;4.762;2024-03-02T10:00:24;5.82;;;1.30;;
19965;SDS011;10144;50.874;4.762;2024-03-02T10:02:56;3.35;;;0.85;;
19965;SDS011;10144;50.874;4.762;2024-03-02T10:05:39;10.20;;;1.25;;
19965;SDS011;10144;50.874;4.762;2024-03-02T10:08:06;6.30;;;1.08;;
19965;SDS011;10144;50.874;4.762;2024-03-02T10:10:39;4.47;;;0.90;;
19965;SDS011;10144;50.874;4.762;2024-03-02T10:13:07;1.67;;;0.70;;
19965;SDS011;10144;50.874;4.762;2024-03-02T10:15:42;4.50;;;1.02;;
19965;SDS011;10144;50.874;4.762;2024-03-02T10:18:12;4.43;;;0.82;;
19965;SDS011;10144;50.874;4.762;2024-03-02T10:20:41;7.18;;;1.02;;
19965;SDS011;10144;50.874;4.762;2024-03-02T10:23:14;7.57;;;1.33;;
19965;SDS011;10144;50.874;4.762;2024-03-02T10:25:44;3.15;;;0.90;;
19965;SDS011;10144;50.874;4.762;2024-03-02T10:28:16;12.20;;;0.90;;
19965;SDS011;10144;50.874;4.762;2024-03-02T10:30:49;5.40;;;0.95;;
19965;SDS011;10144;50.874;4.762;2024-03-02T10:33:17;4.38;;;0.73;;
19965;SDS011;10144;50.874;4.762;2024-03-02T10:35:44;6.25;;;0.80;;
19965;SDS011;10144;50.874;4.762;2024-03-02T10:38:12;4.78;;;1.00;;
19965;SDS011;10144;50.874;4.762;2024-03-02T10:40:42;6.00;;;1.17;;
19965;SDS011;10144;50.874;4.762;2024-03-02T10:45:43;7.30;;;1.25;;
19965;SDS011;10144;50.874;4.762;2024-03-02T10:50:39;2.13;;;0.98;;
19965;SDS011;10144;50.874;4.762;2024-03-02T10:53:06;6.18;;;1.00;;
19965;SDS011;10144;50.874;4.762;2024-03-02T10:55:34;5.53;;;0.90;;
19965;SDS011;10144;50.874;4.762;2024-03-02T11:00:31;2.50;;;0.70;;
19965;SDS011;10144;50.874;4.762;2024-03-02T11:03:06;4.80;;;1.10;;
19965;SDS011;10144;50.874;4.762;2024-03-02T11:05:41;5.47;;;1.15;;
19965;SDS011;10144;50.874;4.762;2024-03-02T11:08:19;3.63;;;1.00;;
19965;SDS011;10144;50.874;4.762;2024-03-02T11:10:50;3.70;;;0.80;;
19965;SDS011;10144;50.874;4.762;2024-03-02T11:13:27;6.75;;;1.00;;
19965;SDS011;10144;50.874;4.762;2024-03-02T11:16:03;3.97;;;0.80;;
19965;SDS011;10144;50.874;4.762;2024-03-02T11:18:40;4.78;;;0.98;;
19965;SDS011;10144;50.874;4.762;2024-03-02T11:21:11;6.03;;;1.00;;
19965;SDS011;10144;50.874;4.762;2024-03-02T11:23:40;5.45;;;0.98;;
19965;SDS011;10144;50.874;4.762;2024-03-02T11:26:23;5.03;;;0.95;;
19965;SDS011;10144;50.874;4.762;2024-03-02T11:28:52;3.63;;;0.80;;
19965;SDS011;10144;50.874;4.762;2024-03-02T11:31:21;5.43;;;1.13;;
19965;SDS011;10144;50.874;4.762;2024-03-02T11:33:50;2.45;;;0.82;;
19965;SDS011;10144;50.874;4.762;2024-03-02T11:36:18;5.60;;;1.00;;
19965;SDS011;10144;50.874;4.762;2024-03-02T11:38:47;4.25;;;0.85;;
19965;SDS011;10144;50.874;4.762;2024-03-02T11:41:13;3.92;;;0.90;;
19965;SDS011;10144;50.874;4.762;2024-03-02T11:43:41;3.47;;;0.65;;
19965;SDS011;10144;50.874;4.762;2024-03-02T11:48:45;7.05;;;1.05;;
19965;SDS011;10144;50.874;4.762;2024-03-02T11:51:17;5.80;;;0.90;;
19965;SDS011;10144;50.874;4.762;2024-03-02T11:53:44;2.92;;;0.85;;
19965;SDS011;10144;50.874;4.762;2024-03-02T11:56:15;4.65;;;0.90;;
19965;SDS011;10144;50.874;4.762;2024-03-02T11:58:42;7.30;;;1.10;;
19965;SDS011;10144;50.874;4.762;2024-03-02T12:01:10;7.25;;;1.25;;
19965;SDS011;10144;50.874;4.762;2024-03-02T12:03:43;3.33;;;0.90;;
19965;SDS011;10144;50.874;4.762;2024-03-02T12:06:10;2.53;;;0.70;;
19965;SDS011;10144;50.874;4.762;2024-03-02T12:11:12;5.65;;;0.90;;
19965;SDS011;10144;50.874;4.762;2024-03-02T12:13:48;6.18;;;1.00;;
19965;SDS011;10144;50.874;4.762;2024-03-02T12:16:26;8.73;;;1.20;;
19965;SDS011;10144;50.874;4.762;2024-03-02T12:18:55;5.00;;;1.10;;
19965;SDS011;10144;50.874;4.762;2024-03-02T12:23:57;7.55;;;1.10;;
19965;SDS011;10144;50.874;4.762;2024-03-02T12:26:26;3.15;;;0.90;;
19965;SDS011;10144;50.874;4.762;2024-03-02T12:31:24;4.30;;;1.08;;
19965;SDS011;10144;50.874;4.762;2024-03-02T12:33:53;5.35;;;1.00;;
19965;SDS011;10144;50.874;4.762;2024-03-02T12:36:22;5.50;;;1.00;;
19965;SDS011;10144;50.874;4.762;2024-03-02T12:41:21;5.60;;;1.10;;
19965;SDS011;10144;50.874;4.762;2024-03-02T12:43:47;3.72;;;0.90;;
19965;SDS011;10144;50.874;4.762;2024-03-02T12:46:13;2.67;;;0.75;;
19965;SDS011;10144;50.874;4.762;2024-03-02T12:48:41;5.43;;;0.90;;
19965;SDS011;10144;50.874;4.762;2024-03-02T12:51:10;3.85;;;0.70;;
19965;SDS011;10144;50.874;4.762;2024-03-02T12:53:38;5.18;;;1.10;;
19965;SDS011;10144;50.874;4.762;2024-03-02T12:56:09;3.40;;;1.10;;
19965;SDS011;10144;50.874;4.762;2024-03-02T12:58:41;2.40;;;0.80;;
19965;SDS011;10144;50.874;4.762;2024-03-02T13:01:10;7.55;;;1.13;;
19965;SDS011;10144;50.874;4.762;2024-03-02T13:03:42;6.22;;;1.17;;
19965;SDS011;10144;50.874;4.762;2024-03-02T13:08:37;4.85;;;1.05;;
19965;SDS011;10144;50.874;4.762;2024-03-02T13:11:09;4.35;;;1.02;;
19965;SDS011;10144;50.874;4.762;2024-03-02T13:13:35;5.38;;;0.85;;
19965;SDS011;10144;50.874;4.762;2024-03-02T13:16:03;3.35;;;0.63;;
19965;SDS011;10144;50.874;4.762;2024-03-02T13:18:36;2.63;;;0.80;;
19965;SDS011;10144;50.874;4.762;2024-03-02T13:21:04;4.13;;;0.85;;
19965;SDS011;10144;50.874;4.762;2024-03-02T13:23:33;3.92;;;1.02;;
19965;SDS011;10144;50.874;4.762;2024-03-02T13:26:01;3.10;;;0.85;;
19965;SDS011;10144;50.874;4.762;2024-03-02T13:28:28;5.25;;;1.00;;
19965;SDS011;10144;50.874;4.762;2024-03-02T13:31:00;4.70;;;1.05;;
19965;SDS011;10144;50.874;4.762;2024-03-02T13:33:27;3.15;;;1.00;;
19965;SDS011;10144;50.874;4.762;2024-03-02T13:35:58;3.72;;;1.17;;
19965;SDS011;10144;50.874;4.762;2024-03-02T13:38:26;1.77;;;0.75;;
19965;SDS011;10144;50.874;4.762;2024-03-02T13:40:52;8.90;;;1.00;;
19965;SDS011;10144;50.874;4.762;2024-03-02T13:43:20;3.28;;;0.57;;
19965;SDS011;10144;50.874;4.762;2024-03-02T13:45:46;2.92;;;0.77;;
19965;SDS011;10144;50.874;4.762;2024-03-02T13:48:15;3.20;;;0.80;;
19965;SDS011;10144;50.874;4.762;2024-03-02T13:50:42;3.17;;;0.77;;
19965;SDS011;10144;50.874;4.762;2024-03-02T13:53:11;2.45;;;0.70;;
19965;SDS011;10144;50.874;4.762;2024-03-02T13:58:07;2.70;;;0.80;;
19965;SDS011;10144;50.874;4.762;2024-03-02T14:00:33;3.38;;;1.00;;
19965;SDS011;10144;50.874;4.762;2024-03-02T14:03:02;3.72;;;0.93;;
19965;SDS011;10144;50.874;4.762;2024-03-02T14:05:32;2.95;;;0.60;;
19965;SDS011;10144;50.874;4.762;2024-03-02T14:10:44;3.28;;;0.70;;
19965;SDS011;10144;50.874;4.762;2024-03-02T14:13:12;0.85;;;0.60;;
19965;SDS011;10144;50.874;4.762;2024-03-02T14:18:06;4.07;;;0.90;;
19965;SDS011;10144;50.874;4.762;2024-03-02T14:20:38;6.15;;;1.25;;
19965;SDS011;10144;50.874;4.762;2024-03-02T14:23:06;5.70;;;0.90;;
19965;SDS011;10144;50.874;4.762;2024-03-02T14:25:34;2.47;;;0.77;;
19965;SDS011;10144;50.874;4.762;2024-03-02T14:28:00;3.90;;;1.00;;
19965;SDS011;10144;50.874;4.762;2024-03-02T14:30:26;3.80;;;0.95;;
19965;SDS011;10144;50.874;4.762;2024-03-02T14:32:57;4.10;;;0.90;;
19965;SDS011;10144;50.874;4.762;2024-03-02T14:35:26;2.92;;;0.70;;
19965;SDS011;10144;50.874;4.762;2024-03-02T14:37:53;2.00;;;0.70;;
19965;SDS011;10144;50.874;4.762;2024-03-02T14:40:19;1.77;;;0.70;;
19965;SDS011;10144;50.874;4.762;2024-03-02T14:45:16;4.80;;;0.90;;
19965;SDS011;10144;50.874;4.762;2024-03-02T14:47:43;4.32;;;0.98;;
19965;SDS011;10144;50.874;4.762;2024-03-02T14:50:10;3.25;;;0.70;;
19965;SDS011;10144;50.874;4.762;2024-03-02T14:55:06;4.32;;;0.80;;
19965;SDS011;10144;50.874;4.762;2024-03-02T14:57:33;3.92;;;0.95;;
19965;SDS011;10144;50.874;4.762;2024-03-02T15:02:29;5.75;;;1.05;;
19965;SDS011;10144;50.874;4.762;2024-03-02T15:04:57;4.03;;;0.95;;
19965;SDS011;10144;50.874;4.762;2024-03-02T15:07:23;2.22;;;0.90;;
19965;SDS011;10144;50.874;4.762;2024-03-02T15:10:04;4.43;;;0.90;;
19965;SDS011;10144;50.874;4.762;2024-03-02T15:12:30;2.38;;;0.80;;
19965;SDS011;10144;50.874;4.762;2024-03-02T15:14:59;1.98;;;0.80;;
19965;SDS011;10144;50.874;4.762;2024-03-02T15:17:26;3.47;;;0.95;;
19965;SDS011;10144;50.874;4.762;2024-03-02T15:19:55;3.53;;;0.70;;
19965;SDS011;10144;50.874;4.762;2024-03-02T15:22:26;3.67;;;0.85;;
19965;SDS011;10144;50.874;4.762;2024-03-02T15:24:53;4.00;;;1.00;;
19965;SDS011;10144;50.874;4.762;2024-03-02T15:27:21;2.42;;;0.75;;
19965;SDS011;10144;50.874;4.762;2024-03-02T15:29:46;3.47;;;0.93;;
19965;SDS011;10144;50.874;4.762;2024-03-02T15:32:15;2.75;;;0.80;;
19965;SDS011;10144;50.874;4.762;2024-03-02T15:34:44;3.50;;;1.20;;
19965;SDS011;10144;50.874;4.762;2024-03-02T15:37:13;2.78;;;0.90;;
19965;SDS011;10144;50.874;4.762;2024-03-02T15:39:38;4.97;;;0.88;;
19965;SDS011;10144;50.874;4.762;2024-03-02T15:42:11;2.75;;;0.90;;
19965;SDS011;10144;50.874;4.762;2024-03-02T15:44:37;2.45;;;0.98;;
19965;SDS011;10144;50.874;4.762;2024-03-02T15:47:04;5.00;;;1.20;;
19965;SDS011;10144;50.874;4.762;2024-03-02T15:49:30;5.28;;;1.00;;
19965;SDS011;10144;50.874;4.762;2024-03-02T15:52:00;10.25;;;1.40;;
19965;SDS011;10144;50.874;4.762;2024-03-02T15:54:26;4.47;;;0.98;;
19965;SDS011;10144;50.874;4.762;2024-03-02T15:56:55;2.55;;;0.93;;
19965;SDS011;10144;50.874;4.762;2024-03-02T16:01:53;4.80;;;1.10;;
19965;SDS011;10144;50.874;4.762;2024-03-02T16:06:50;3.97;;;1.15;;
19965;SDS011;10144;50.874;4.762;2024-03-02T16:09:16;3.28;;;1.10;;
19965;SDS011;10144;50.874;4.762;2024-03-02T16:11:43;4.00;;;1.00;;
19965;SDS011;10144;50.874;4.762;2024-03-02T16:14:16;3.07;;;1.17;;
19965;SDS011;10144;50.874;4.762;2024-03-02T16:16:42;3.27;;;1.10;;
19965;SDS011;10144;50.874;4.762;2024-03-02T16:24:13;4.40;;;1.50;;
19965;SDS011;10144;50.874;4.762;2024-03-02T16:31:50;6.20;;;2.20;;
19965;SDS011;10144;50.874;4.762;2024-03-02T16:34:19;4.13;;;1.60;;
19965;SDS011;10144;50.874;4.762;2024-03-02T16:37:02;3.83;;;1.50;;
19965;SDS011;10144;50.874;4.762;2024-03-02T16:42:26;3.28;;;1.50;;
19965;SDS011;10144;50.874;4.762;2024-03-02T16:45:02;2.65;;;1.40;;
19965;SDS011;10144;50.874;4.762;2024-03-02T16:47:41;3.73;;;1.60;;
19965;SDS011;10144;50.874;4.762;2024-03-02T16:50:06;2.63;;;1.70;;
19965;SDS011;10144;50.874;4.762;2024-03-02T16:52:42;6.10;;;1.93;;
19965;SDS011;10144;50.874;4.762;2024-03-02T16:55:18;4.13;;;1.50;;
19965;SDS011;10144;50.874;4.762;2024-03-02T16:57:47;3.93;;;1.47;;
19965;SDS011;10144;50.874;4.762;2024-03-02T17:00:19;3.00;;;1.47;;
19965;SDS011;10144;50.874;4.762;2024-03-02T17:02:47;4.50;;;1.80;;
19965;SDS011;10144;50.874;4.762;2024-03-02T17:05:14;4.57;;;1.87;;
19965;SDS011;10144;50.874;4.762;2024-03-02T17:07:43;4.17;;;1.60;;
19965;SDS011;10144;50.874;4.762;2024-03-02T17:10:09;2.97;;;1.60;;
19965;SDS011;10144;50.874;4.762;2024-03-02T17:12:38;2.93;;;1.60;;
19965;SDS011;10144;50.874;4.762;2024-03-02T17:15:04;3.50;;;1.60;;
19965;SDS011;10144;50.874;4.762;2024-03-02T17:17:33;2.93;;;1.70;;
19965;SDS011;10144;50.874;4.762;2024-03-02T17:20:04;6.00;;;1.77;;
19965;SDS011;10144;50.874;4.762;2024-03-02T17:25:42;3.03;;;1.30;;
19965;SDS011;10144;50.874;4.762;2024-03-02T17:28:23;5.20;;;1.80;;
19965;SDS011;10144;50.874;4.762;2024-03-02T17:36:34;2.87;;;1.80;;
19965;SDS011;10144;50.874;4.762;2024-03-02T17:39:04;4.20;;;1.70;;
19965;SDS011;10144;50.874;4.762;2024-03-02T17:41:31;5.53;;;2.03;;
19965;SDS011;10144;50.874;4.762;2024-03-02T17:46:26;2.93;;;1.70;;
19965;SDS011;10144;50.874;4.762;2024-03-02T17:48:56;5.77;;;2.10;;
19965;SDS011;10144;50.874;4.762;2024-03-02T17:51:25;4.80;;;2.00;;
19965;SDS011;10144;50.874;4.762;2024-03-02T17:53:54;6.67;;;2.43;;
19965;SDS011;10144;50.874;4.762;2024-03-02T17:56:23;3.63;;;2.03;;
19965;SDS011;10144;50.874;4.762;2024-03-02T17:58:48;5.40;;;1.90;;
19965;SDS011;10144;50.874;4.762;2024-03-02T18:03:46;5.03;;;1.80;;
19965;SDS011;10144;50.874;4.762;2024-03-02T18:06:21;4.10;;;1.93;;
19965;SDS011;10144;50.874;4.762;2024-03-02T18:08:50;5.20;;;1.80;;
19965;SDS011;10144;50.874;4.762;2024-03-02T18:11:17;4.23;;;1.70;;